createdAt,value
2023-03-29T00:02:13.082Z,3.67
2023-03-29T00:04:43.736Z,3.00
2023-03-29T00:07:10.386Z,3.43
2023-03-29T00:09:37.139Z,3.90
2023-03-29T00:12:03.973Z,3.97
2023-03-29T00:14:31.197Z,4.10
2023-03-29T00:16:58.647Z,3.87
2023-03-29T00:19:25.789Z,4.50
2023-03-29T00:21:52.559Z,3.43
2023-03-29T00:24:20.884Z,3.23
2023-03-29T00:26:47.593Z,2.77
2023-03-29T00:29:14.219Z,3.23
2023-03-29T00:31:41.084Z,3.70
2023-03-29T00:34:07.928Z,4.23
2023-03-29T00:36:34.620Z,3.80
2023-03-29T00:39:01.269Z,3.57
2023-03-29T00:41:28.178Z,4.43
2023-03-29T00:44:01.268Z,3.10
2023-03-29T00:46:30.552Z,3.47
2023-03-29T00:49:12.538Z,4.17
2023-03-29T00:51:41.554Z,3.80
2023-03-29T00:54:14.421Z,4.10
2023-03-29T00:56:44.766Z,3.70
2023-03-29T00:59:22.129Z,3.87
2023-03-29T01:01:57.186Z,3.40
2023-03-29T01:04:45.388Z,4.10
2023-03-29T01:07:21.708Z,3.80
2023-03-29T01:10:11.951Z,4.43
2023-03-29T01:12:46.536Z,3.93
2023-03-29T01:15:17.930Z,4.20
2023-03-29T01:17:50.142Z,4.00
2023-03-29T01:20:23.402Z,4.23
2023-03-29T01:23:10.414Z,3.63
2023-03-29T01:25:40.372Z,3.93
2023-03-29T01:28:14.655Z,4.20
2023-03-29T01:30:49.583Z,3.87
2023-03-29T01:33:24.871Z,3.30
2023-03-29T01:36:21.277Z,4.33
2023-03-29T01:38:57.243Z,3.63
2023-03-29T01:41:31.877Z,3.90
2023-03-29T01:44:07.850Z,3.70
2023-03-29T01:46:46.833Z,3.97
2023-03-29T01:49:21.152Z,4.07
2023-03-29T01:52:01.136Z,4.80
2023-03-29T01:54:47.646Z,4.47
2023-03-29T01:57:15.623Z,4.33
2023-03-29T01:59:44.462Z,4.17
2023-03-29T02:02:14.735Z,3.70
2023-03-29T02:04:48.904Z,3.77
2023-03-29T02:07:19.103Z,4.10
2023-03-29T02:09:48.831Z,4.27
2023-03-29T02:12:17.177Z,3.70
2023-03-29T02:14:43.885Z,4.60
2023-03-29T02:17:27.993Z,3.03
2023-03-29T02:20:02.533Z,3.37
2023-03-29T02:22:40.994Z,3.30
2023-03-29T02:25:09.355Z,2.93
2023-03-29T02:27:37.946Z,3.57
2023-03-29T02:30:18.522Z,3.80
2023-03-29T02:32:59.465Z,3.43
2023-03-29T02:35:36.127Z,3.73
2023-03-29T02:38:07.642Z,3.67
2023-03-29T02:40:37.463Z,3.33
2023-03-29T02:43:06.881Z,3.47
2023-03-29T02:48:08.981Z,2.90
2023-03-29T02:50:39.119Z,3.00
2023-03-29T02:53:16.962Z,3.60
2023-03-29T02:55:46.748Z,2.93
2023-03-29T02:58:15.458Z,3.20
2023-03-29T03:00:47.982Z,2.93
2023-03-29T03:03:15.502Z,3.17
2023-03-29T03:05:44.259Z,2.63
2023-03-29T03:08:11.330Z,3.27
2023-03-29T03:10:38.837Z,3.60
2023-03-29T03:13:05.722Z,2.87
2023-03-29T03:15:35.588Z,3.00
2023-03-29T03:18:04.127Z,2.93
2023-03-29T03:20:31.739Z,3.30
2023-03-29T03:22:58.844Z,3.10
2023-03-29T03:25:25.776Z,3.00
2023-03-29T03:27:53.051Z,3.17
2023-03-29T03:30:21.964Z,3.37
2023-03-29T03:33:28.059Z,2.93
2023-03-29T03:36:25.946Z,3.23
2023-03-29T03:38:53.280Z,3.07
2023-03-29T03:41:20.988Z,3.30
2023-03-29T03:43:49.010Z,2.60
2023-03-29T03:46:17.094Z,2.77
2023-03-29T03:48:45.941Z,2.80
2023-03-29T03:51:19.853Z,3.17
2023-03-29T03:53:46.518Z,2.93
2023-03-29T03:56:14.177Z,3.53
2023-03-29T03:59:00.978Z,2.90
2023-03-29T04:01:30.625Z,3.33
2023-03-29T04:04:09.200Z,3.00
2023-03-29T04:06:35.898Z,3.23
2023-03-29T04:09:33.980Z,2.93
2023-03-29T04:12:17.232Z,3.27
2023-03-29T04:14:44.693Z,2.63
2023-03-29T04:17:17.291Z,3.30
2023-03-29T04:19:55.654Z,2.47
2023-03-29T04:22:22.440Z,3.10
2023-03-29T04:24:49.256Z,2.73
2023-03-29T04:27:31.827Z,3.00
2023-03-29T04:30:02.008Z,2.87
2023-03-29T04:32:47.924Z,3.03
2023-03-29T04:35:16.576Z,2.47
2023-03-29T04:37:43.530Z,3.10
2023-03-29T04:40:14.465Z,2.87
2023-03-29T04:42:57.269Z,3.20
2023-03-29T04:45:24.075Z,2.50
2023-03-29T04:48:05.632Z,2.83
2023-03-29T04:50:32.374Z,2.67
2023-03-29T04:53:00.219Z,3.17
2023-03-29T04:55:28.209Z,3.40
2023-03-29T04:58:00.121Z,2.70
2023-03-29T05:00:39.038Z,2.53
2023-03-29T05:03:16.843Z,3.33
2023-03-29T05:05:52.917Z,2.67
2023-03-29T05:08:19.539Z,2.83
2023-03-29T05:11:10.154Z,5.40
2023-03-29T05:13:37.630Z,3.53
2023-03-29T05:16:04.908Z,2.80
2023-03-29T05:18:31.803Z,3.83
2023-03-29T05:20:59.599Z,3.60
2023-03-29T05:23:28.724Z,3.67
2023-03-29T05:26:15.531Z,4.20
2023-03-29T05:28:47.348Z,3.90
2023-03-29T05:31:16.694Z,3.67
2023-03-29T05:33:47.531Z,3.60
2023-03-29T05:36:16.532Z,4.33
2023-03-29T05:38:49.753Z,4.37
2023-03-29T05:41:17.803Z,4.00
2023-03-29T05:43:59.716Z,3.63
2023-03-29T05:46:26.930Z,4.43
2023-03-29T05:48:56.627Z,4.30
2023-03-29T05:51:35.356Z,4.27
2023-03-29T05:54:02.315Z,4.17
2023-03-29T05:56:29.050Z,4.73
2023-03-29T05:58:58.615Z,4.80
2023-03-29T06:01:25.754Z,4.37
2023-03-29T06:04:00.742Z,3.93
2023-03-29T06:06:36.448Z,3.37
2023-03-29T06:09:03.975Z,3.97
2023-03-29T06:11:34.842Z,4.20
2023-03-29T06:14:23.163Z,4.13
2023-03-29T06:16:55.140Z,4.37
2023-03-29T06:19:22.505Z,4.50
2023-03-29T06:21:49.951Z,4.00
2023-03-29T06:24:22.100Z,3.70
2023-03-29T06:26:54.645Z,4.43
2023-03-29T06:29:21.989Z,4.63
2023-03-29T06:31:54.058Z,4.20
2023-03-29T06:34:40.873Z,4.40
2023-03-29T06:37:21.432Z,4.20
2023-03-29T06:39:53.794Z,4.17
2023-03-29T06:42:25.700Z,4.10
2023-03-29T06:45:11.261Z,4.37
2023-03-29T06:47:39.472Z,3.93
2023-03-29T06:50:07.557Z,3.40
2023-03-29T06:52:40.642Z,3.33
2023-03-29T06:55:07.966Z,3.47
2023-03-29T06:57:36.118Z,3.80
2023-03-29T07:00:11.491Z,3.50
2023-03-29T07:03:13.247Z,3.70
2023-03-29T07:05:44.823Z,4.03
2023-03-29T07:08:16.278Z,3.50
2023-03-29T07:10:53.390Z,3.87
2023-03-29T07:13:44.467Z,3.73
2023-03-29T07:16:14.749Z,3.00
2023-03-29T07:18:48.923Z,3.47
2023-03-29T07:21:28.786Z,2.97
2023-03-29T07:24:00.360Z,2.60
2023-03-29T07:26:30.090Z,3.13
2023-03-29T07:28:58.674Z,3.80
2023-03-29T07:31:25.446Z,3.53
2023-03-29T07:34:00.545Z,3.10
2023-03-29T07:36:28.481Z,3.70
2023-03-29T07:38:56.888Z,3.77
2023-03-29T07:41:24.569Z,3.93
2023-03-29T07:43:57.723Z,2.60
2023-03-29T07:46:25.296Z,3.10
2023-03-29T07:48:52.504Z,3.00
2023-03-29T07:51:19.897Z,3.30
2023-03-29T07:53:54.185Z,2.60
2023-03-29T07:56:44.165Z,2.97
2023-03-29T07:59:16.794Z,3.33
2023-03-29T08:01:46.001Z,3.37
2023-03-29T08:04:27.931Z,2.77
2023-03-29T08:07:14.412Z,3.30
2023-03-29T08:09:57.519Z,3.57
2023-03-29T08:12:38.225Z,3.33
2023-03-29T08:15:06.019Z,3.07
2023-03-29T08:17:35.180Z,3.20
2023-03-29T08:20:05.873Z,2.93
2023-03-29T08:22:33.482Z,3.00
2023-03-29T08:25:18.929Z,3.33
2023-03-29T08:27:49.389Z,3.10
2023-03-29T08:30:24.786Z,2.60
2023-03-29T08:32:54.868Z,3.03
2023-03-29T08:35:22.951Z,3.77
2023-03-29T08:38:01.818Z,3.23
2023-03-29T08:40:30.096Z,3.70
2023-03-29T08:43:35.385Z,4.50
2023-03-29T08:46:42.697Z,3.63
2023-03-29T08:49:21.443Z,3.40
2023-03-29T08:52:00.388Z,3.40
2023-03-29T08:54:34.799Z,2.97
2023-03-29T08:57:42.553Z,2.70
2023-03-29T09:00:32.162Z,3.23
2023-03-29T09:03:02.400Z,3.17
2023-03-29T09:05:41.310Z,3.30
2023-03-29T09:08:22.346Z,2.70
2023-03-29T09:11:23.035Z,2.47
2023-03-29T09:14:09.065Z,3.10
2023-03-29T09:16:46.449Z,2.63
2023-03-29T09:19:30.658Z,3.20
2023-03-29T09:22:06.502Z,4.27
2023-03-29T09:25:04.322Z,2.90
2023-03-29T09:27:48.036Z,3.40
2023-03-29T09:30:41.940Z,3.07
2023-03-29T09:33:30.342Z,3.07
2023-03-29T09:36:24.621Z,2.90
2023-03-29T09:38:54.307Z,3.30
2023-03-29T09:41:27.609Z,2.97
2023-03-29T09:43:57.038Z,3.10
2023-03-29T09:46:34.194Z,2.60
2023-03-29T09:49:03.988Z,3.20
2023-03-29T09:51:33.735Z,3.07
2023-03-29T09:54:00.993Z,2.50
2023-03-29T09:57:00.245Z,2.53
2023-03-29T09:59:27.013Z,2.60
2023-03-29T10:01:53.729Z,2.87
2023-03-29T10:04:22.112Z,2.50
2023-03-29T10:06:55.266Z,3.20
2023-03-29T10:09:24.215Z,3.00
2023-03-29T10:11:59.934Z,2.80
2023-03-29T10:14:45.170Z,3.03
2023-03-29T10:17:37.861Z,2.93
2023-03-29T10:20:08.114Z,3.27
2023-03-29T10:22:37.896Z,3.20
2023-03-29T10:25:12.604Z,2.63
2023-03-29T10:27:43.107Z,2.77
2023-03-29T10:30:31.774Z,3.07
2023-03-29T10:33:00.011Z,3.03
2023-03-29T10:35:41.451Z,2.97
2023-03-29T10:38:18.737Z,2.90
2023-03-29T10:40:48.625Z,3.30
2023-03-29T10:43:32.171Z,2.73
2023-03-29T10:46:13.145Z,3.00
2023-03-29T10:48:45.979Z,3.00
2023-03-29T10:51:14.305Z,3.20
2023-03-29T10:53:41.571Z,3.53
2023-03-29T10:56:40.747Z,3.10
2023-03-29T10:59:16.502Z,3.47
2023-03-29T11:02:24.262Z,2.83
2023-03-29T11:05:09.101Z,2.90
2023-03-29T11:07:43.615Z,3.13
2023-03-29T11:10:19.147Z,3.23
2023-03-29T11:13:08.351Z,2.93
2023-03-29T11:16:02.431Z,2.60
2023-03-29T11:19:05.018Z,3.20
2023-03-29T11:21:54.650Z,3.27
2023-03-29T11:24:26.004Z,3.27
2023-03-29T11:27:12.948Z,2.60
2023-03-29T11:30:00.513Z,3.13
2023-03-29T11:33:06.813Z,2.80
2023-03-29T11:35:46.423Z,3.10
2023-03-29T11:38:32.238Z,2.93
2023-03-29T11:41:18.718Z,2.93
2023-03-29T11:43:56.622Z,3.30
2023-03-29T11:46:32.353Z,3.43
2023-03-29T11:49:14.752Z,2.63
2023-03-29T11:51:46.012Z,3.53
2023-03-29T11:54:21.795Z,3.10
2023-03-29T11:56:56.042Z,3.30
2023-03-29T11:59:28.523Z,2.87
2023-03-29T12:02:02.174Z,3.17
2023-03-29T12:04:36.532Z,3.23
2023-03-29T12:07:18.184Z,3.17
2023-03-29T12:09:52.749Z,3.00
2023-03-29T12:12:59.935Z,3.10
2023-03-29T12:15:47.151Z,3.80
2023-03-29T12:18:19.877Z,3.50
2023-03-29T12:20:52.300Z,3.20
2023-03-29T12:23:19.422Z,3.83
2023-03-29T12:26:16.149Z,3.20
2023-03-29T12:28:51.972Z,2.83
2023-03-29T12:31:48.941Z,3.13
2023-03-29T12:34:43.295Z,3.00
2023-03-29T12:38:15.824Z,2.63
2023-03-29T12:41:21.610Z,3.37
2023-03-29T12:44:15.941Z,2.90
2023-03-29T12:46:57.469Z,3.23
2023-03-29T12:49:31.414Z,2.80
2023-03-29T12:52:01.546Z,2.53
2023-03-29T12:54:31.309Z,2.93
2023-03-29T12:57:00.559Z,2.80
2023-03-29T12:59:37.627Z,3.20
2023-03-29T13:02:13.800Z,2.63
2023-03-29T13:04:43.565Z,3.00
2023-03-29T13:07:27.539Z,2.80
2023-03-29T13:10:10.305Z,3.00
2023-03-29T13:12:45.611Z,3.13
2023-03-29T13:15:16.519Z,2.70
2023-03-29T13:17:58.293Z,2.77
2023-03-29T13:20:37.777Z,3.10
2023-03-29T13:23:23.134Z,2.73
2023-03-29T13:26:21.823Z,1.90
2023-03-29T13:29:08.343Z,2.40
2023-03-29T13:32:00.982Z,2.60
2023-03-29T13:34:48.696Z,1.83
2023-03-29T13:37:18.112Z,1.87
2023-03-29T13:39:55.411Z,2.07
2023-03-29T13:42:34.236Z,2.37
2023-03-29T13:45:23.081Z,1.80
2023-03-29T13:48:05.048Z,2.50
2023-03-29T13:50:39.468Z,2.10
2023-03-29T13:53:13.682Z,2.40
2023-03-29T13:55:48.797Z,3.30
2023-03-29T13:58:27.336Z,2.93
2023-03-29T14:01:28.049Z,2.80
2023-03-29T14:03:56.991Z,3.60
2023-03-29T14:06:29.253Z,2.83
2023-03-29T14:08:56.821Z,2.60
2023-03-29T14:11:26.497Z,1.73
2023-03-29T14:13:55.338Z,2.37
2023-03-29T14:16:22.859Z,2.20
2023-03-29T14:18:51.277Z,1.90
2023-03-29T14:21:19.854Z,1.70
2023-03-29T14:23:53.663Z,1.57
2023-03-29T14:26:23.968Z,2.20
2023-03-29T14:28:56.985Z,1.70
2023-03-29T14:31:34.199Z,2.07
2023-03-29T14:34:03.833Z,1.60
2023-03-29T14:36:33.145Z,2.00
2023-03-29T14:39:08.188Z,2.10
2023-03-29T14:41:37.527Z,1.97
2023-03-29T14:44:06.607Z,1.67
2023-03-29T14:46:34.695Z,1.80
2023-03-29T14:49:02.158Z,2.07
2023-03-29T14:51:31.015Z,1.63
2023-03-29T14:54:00.168Z,1.40
2023-03-29T14:56:27.552Z,1.80
2023-03-29T14:58:56.493Z,2.00
2023-03-29T15:01:25.741Z,2.33
2023-03-29T15:04:06.074Z,2.60
2023-03-29T15:06:37.810Z,1.60
2023-03-29T15:09:06.793Z,1.30
2023-03-29T15:11:35.832Z,1.70
2023-03-29T15:14:04.125Z,1.50
2023-03-29T15:16:31.498Z,1.30
2023-03-29T15:19:01.539Z,2.10
2023-03-29T15:21:34.254Z,1.60
2023-03-29T15:24:03.727Z,1.67
2023-03-29T15:26:31.929Z,1.87
2023-03-29T15:29:14.686Z,1.80
2023-03-29T15:31:42.121Z,1.50
2023-03-29T15:34:12.738Z,1.33
2023-03-29T15:36:42.228Z,1.90
2023-03-29T15:39:13.224Z,1.80
2023-03-29T15:41:44.711Z,2.60
2023-03-29T15:44:14.891Z,1.90
2023-03-29T15:46:41.934Z,1.60
2023-03-29T15:49:12.730Z,1.23
2023-03-29T15:51:40.669Z,1.33
2023-03-29T15:54:07.869Z,1.90
2023-03-29T15:56:38.705Z,1.50
2023-03-29T15:59:06.869Z,1.47
2023-03-29T16:01:37.140Z,1.50
2023-03-29T16:04:25.948Z,1.20
2023-03-29T16:06:54.668Z,1.93
2023-03-29T16:09:22.481Z,1.97
2023-03-29T16:11:50.153Z,1.90
2023-03-29T16:14:28.786Z,1.50
2023-03-29T16:16:59.541Z,2.07
2023-03-29T16:19:28.140Z,1.67
2023-03-29T16:21:55.803Z,2.00
2023-03-29T16:24:28.456Z,2.00
2023-03-29T16:26:56.448Z,1.87
2023-03-29T16:29:27.521Z,2.10
2023-03-29T16:31:54.771Z,1.93
2023-03-29T16:34:22.593Z,1.73
2023-03-29T16:36:49.811Z,1.93
2023-03-29T16:39:18.062Z,1.83
2023-03-29T16:41:48.098Z,2.07
2023-03-29T16:44:19.448Z,2.23
2023-03-29T16:46:47.865Z,1.90
2023-03-29T16:49:18.115Z,1.80
2023-03-29T16:51:46.935Z,2.03
2023-03-29T16:54:15.004Z,1.80
2023-03-29T16:56:41.718Z,2.47
2023-03-29T16:59:09.265Z,1.83
2023-03-29T17:01:36.389Z,2.20
2023-03-29T17:04:03.520Z,2.00
2023-03-29T17:06:32.112Z,2.50
2023-03-29T17:08:59.428Z,2.27
2023-03-29T17:11:26.813Z,1.83
2023-03-29T17:13:54.083Z,2.30
2023-03-29T17:16:21.044Z,2.40
2023-03-29T17:18:47.829Z,1.73
2023-03-29T17:21:14.707Z,2.33
2023-03-29T17:23:42.374Z,2.40
2023-03-29T17:26:09.262Z,2.53
2023-03-29T17:28:36.219Z,2.33
2023-03-29T17:31:06.934Z,2.20
2023-03-29T17:33:34.129Z,2.40
2023-03-29T17:36:01.665Z,2.23
2023-03-29T17:38:30.229Z,2.60
2023-03-29T17:40:56.965Z,2.20
2023-03-29T17:43:24.192Z,2.27
2023-03-29T17:45:52.295Z,1.90
2023-03-29T17:48:19.846Z,1.90
2023-03-29T17:50:47.016Z,2.50
2023-03-29T17:53:13.762Z,3.17
2023-03-29T17:55:41.241Z,2.60
2023-03-29T17:58:08.349Z,2.37
2023-03-29T18:00:35.547Z,2.37
2023-03-29T18:03:02.294Z,2.10
2023-03-29T18:05:29.034Z,2.17
2023-03-29T18:07:56.334Z,2.30
2023-03-29T18:10:23.299Z,2.60
2023-03-29T18:12:50.172Z,2.10
2023-03-29T18:15:17.035Z,2.70
2023-03-29T18:17:44.544Z,2.20
2023-03-29T18:20:12.412Z,2.20
2023-03-29T18:22:41.300Z,2.07
2023-03-29T18:25:09.386Z,1.97
2023-03-29T18:27:37.906Z,2.77
2023-03-29T18:30:06.402Z,2.57
2023-03-29T18:32:33.561Z,2.37
2023-03-29T18:35:02.231Z,2.30
2023-03-29T18:37:28.941Z,2.27
2023-03-29T18:39:55.715Z,2.37
2023-03-29T18:42:22.582Z,2.40
2023-03-29T18:44:49.635Z,2.73
2023-03-29T18:47:18.105Z,3.37
2023-03-29T18:49:45.128Z,2.70
2023-03-29T18:52:12.452Z,2.67
2023-03-29T18:54:39.419Z,2.60
2023-03-29T18:57:06.360Z,2.60
2023-03-29T18:59:35.738Z,2.70
2023-03-29T19:02:03.058Z,2.83
2023-03-29T19:04:29.950Z,2.30
2023-03-29T19:06:56.823Z,2.37
2023-03-29T19:09:23.592Z,2.43
2023-03-29T19:11:50.854Z,2.00
2023-03-29T19:14:23.200Z,2.37
2023-03-29T19:16:51.742Z,2.50
2023-03-29T19:19:19.350Z,2.00
2023-03-29T19:21:47.302Z,2.57
2023-03-29T19:24:14.867Z,3.00
2023-03-29T19:26:43.424Z,2.87
2023-03-29T19:29:10.584Z,2.60
2023-03-29T19:31:37.886Z,2.50
2023-03-29T19:34:06.699Z,2.40
2023-03-29T19:36:33.732Z,1.80
2023-03-29T19:39:00.820Z,2.43
2023-03-29T19:41:28.114Z,2.60
2023-03-29T19:43:55.329Z,2.63
2023-03-29T19:46:22.286Z,2.10
2023-03-29T19:48:49.193Z,2.33
2023-03-29T19:51:16.583Z,2.30
2023-03-29T19:53:43.291Z,2.70
2023-03-29T19:56:10.831Z,2.40
2023-03-29T19:58:37.753Z,2.20
2023-03-29T20:01:04.589Z,2.27
2023-03-29T20:03:33.993Z,2.63
2023-03-29T20:06:01.798Z,3.03
2023-03-29T20:08:28.735Z,2.27
2023-03-29T20:11:07.964Z,2.87
2023-03-29T20:13:38.524Z,2.73
2023-03-29T20:16:08.155Z,2.90
2023-03-29T20:18:35.062Z,2.83
2023-03-29T20:21:02.291Z,2.70
2023-03-29T20:23:29.808Z,2.90
2023-03-29T20:25:56.980Z,2.63
2023-03-29T20:28:24.450Z,3.00
2023-03-29T20:30:52.202Z,2.90
2023-03-29T20:33:20.518Z,2.80
2023-03-29T20:35:48.641Z,3.00
2023-03-29T20:38:16.036Z,2.73
2023-03-29T20:40:42.819Z,2.67
2023-03-29T20:43:18.630Z,2.90
2023-03-29T20:45:53.525Z,2.83
2023-03-29T20:48:31.253Z,2.67
2023-03-29T20:50:58.167Z,3.00
2023-03-29T20:53:25.711Z,3.13
2023-03-29T20:55:52.556Z,2.80
2023-03-29T20:58:19.363Z,2.90
2023-03-29T21:00:48.820Z,3.10
2023-03-29T21:03:15.678Z,2.63
2023-03-29T21:05:43.340Z,2.53
2023-03-29T21:08:10.513Z,2.30
2023-03-29T21:10:37.205Z,3.27
2023-03-29T21:13:03.940Z,2.57
2023-03-29T21:15:31.809Z,2.60
2023-03-29T21:17:58.720Z,2.73
2023-03-29T21:20:25.763Z,2.53
2023-03-29T21:22:52.448Z,2.53
2023-03-29T21:25:19.518Z,2.87
2023-03-29T21:27:46.452Z,2.70
2023-03-29T21:30:13.738Z,2.50
2023-03-29T21:32:40.984Z,2.57
2023-03-29T21:35:08.465Z,2.37
2023-03-29T21:37:35.203Z,2.70
2023-03-29T21:40:05.583Z,3.17
2023-03-29T21:42:33.494Z,2.87
2023-03-29T21:45:00.414Z,2.23
2023-03-29T21:47:27.475Z,2.60
2023-03-29T21:49:54.361Z,2.60
2023-03-29T21:52:21.473Z,2.63
2023-03-29T21:54:48.199Z,2.50
2023-03-29T21:57:14.963Z,2.50
2023-03-29T21:59:41.679Z,2.60
2023-03-29T22:02:08.400Z,2.40
2023-03-29T22:04:37.071Z,2.30
2023-03-29T22:07:04.669Z,2.13
2023-03-29T22:09:32.666Z,2.93
2023-03-29T22:11:59.609Z,2.47
2023-03-29T22:14:28.381Z,2.17
2023-03-29T22:16:55.228Z,2.47
2023-03-29T22:19:22.030Z,2.67
2023-03-29T22:21:48.703Z,2.20
2023-03-29T22:24:16.409Z,2.10
2023-03-29T22:26:44.860Z,2.70
2023-03-29T22:29:11.931Z,2.23
2023-03-29T22:31:39.364Z,3.10
2023-03-29T22:34:06.606Z,2.30
2023-03-29T22:36:33.521Z,2.20
2023-03-29T22:39:00.515Z,2.00
2023-03-29T22:41:28.090Z,2.60
2023-03-29T22:43:57.607Z,2.20
2023-03-29T22:46:25.079Z,2.37
2023-03-29T22:48:52.303Z,2.30
2023-03-29T22:51:20.231Z,2.40
2023-03-29T22:53:47.029Z,2.20
2023-03-29T22:56:15.501Z,2.50
2023-03-29T22:58:42.484Z,2.90
2023-03-29T23:01:09.705Z,2.33
2023-03-29T23:03:36.783Z,2.60
2023-03-29T23:06:04.398Z,2.00
2023-03-29T23:08:32.629Z,2.23
2023-03-29T23:11:00.008Z,2.10
2023-03-29T23:13:28.775Z,2.00
2023-03-29T23:15:58.703Z,1.70
2023-03-29T23:18:28.249Z,2.03
2023-03-29T23:20:56.672Z,2.03
2023-03-29T23:23:24.528Z,2.10
2023-03-29T23:25:52.647Z,2.30
2023-03-29T23:28:23.434Z,1.90
2023-03-29T23:30:57.794Z,1.90
2023-03-29T23:33:25.619Z,2.03
2023-03-29T23:35:54.159Z,1.80
2023-03-29T23:38:20.949Z,1.70
2023-03-29T23:41:00.148Z,1.80
2023-03-29T23:43:32.375Z,2.23
2023-03-29T23:46:00.949Z,2.37
2023-03-29T23:48:28.170Z,1.47
2023-03-29T23:50:57.152Z,1.90
2023-03-29T23:53:25.360Z,1.70
2023-03-29T23:55:55.155Z,2.27
2023-03-29T23:58:21.801Z,1.67
